»·PEaware :: N215WM KWHP-O22

N215WM :: KWHP-O22

FLIGHT INFORMATION

Flight Status: Arrived
Operator: Privately registered:
United States
More flights under this callsign
Pilot: Christopher D. (7277)
Aircraft: CESSNA 337 TURBO SKYMASTER
(C337)
More flights by this aircraft type
Origin: KWHP Whiteman
United States
Destination: O22 Columbia
United States
More flights between these airports :: More routes between these airports
Route: VIS O22
File this flight plan on PilotEdge
Remarks: / G
Altitude:
(Current/Filed)
10,000ft
Speed:
(Current/Filed)
180kts
Departed: 27-Jun-15 07:57 PM
Arrived: 27-Jun-15 09:40 PM
Distance/Time
Traveled:
246nm/1:43
Distance/Time
To Go:
Arrived

Flight Plot

Page will automatically refresh every two minutes.


Map Options




Map Legend


Flown Route
Filed Route
Departure Airport
Arrival Airport
Navaid (VOR, NDB)
Fix

Horizontal Profiles

Position Reports

Time Latitude Longitude Heading Altitude Ground
Speed
27-Jun-15 19:48 34.264299 -118.415068 138 1005ft 0kts
27-Jun-15 19:49 34.264299 -118.415068 138 1005ft 0kts
27-Jun-15 19:50 34.264299 -118.415068 138 1005ft 0kts
27-Jun-15 19:51 34.264299 -118.415068 138 1005ft 0kts
27-Jun-15 19:52 34.264299 -118.415068 138 1005ft 0kts
27-Jun-15 19:53 34.263438 -118.416010 228 1005ft 9kts
27-Jun-15 19:54 34.263684 -118.417453 276 1005ft 0kts
27-Jun-15 19:55 34.263451 -118.417749 176 1005ft 8kts
27-Jun-15 19:56 34.248714 -118.402715 141 1408ft 108kts
27-Jun-15 19:57 34.251722 -118.372455 12 2618ft 124kts
27-Jun-15 19:58 34.281802 -118.394035 329 3576ft 137kts
27-Jun-15 19:59 34.318410 -118.404853 346 4684ft 135kts
27-Jun-15 20:00 34.354003 -118.419142 338 5837ft 138kts
27-Jun-15 20:01 34.389878 -118.436605 328 6736ft 137kts
27-Jun-15 20:02 34.423564 -118.459001 329 7616ft 138kts
27-Jun-15 20:03 34.459061 -118.476660 342 8468ft 140kts
27-Jun-15 20:04 34.497809 -118.488830 336 9158ft 146kts
27-Jun-15 20:05 34.536377 -118.506070 333 9870ft 147kts
27-Jun-15 20:06 34.576514 -118.528460 328 9987ft 172kts
27-Jun-15 20:07 34.620394 -118.554441 328 9994ft 177kts
27-Jun-15 20:08 34.657536 -118.574978 328 10022ft 174kts
27-Jun-15 20:09 34.701275 -118.598081 328 10038ft 166kts
27-Jun-15 20:10 34.741554 -118.619786 329 10084ft 155kts
27-Jun-15 20:11 34.779955 -118.642253 329 10123ft 152kts
27-Jun-15 20:12 34.817533 -118.665950 329 10155ft 152kts
27-Jun-15 20:13 34.854737 -118.690717 329 10179ft 153kts
27-Jun-15 20:14 34.892315 -118.715711 332 10184ft 154kts
27-Jun-15 20:15 34.930945 -118.739339 331 10203ft 156kts
27-Jun-15 20:16 34.970632 -118.761302 338 10193ft 157kts
27-Jun-15 20:17 35.011687 -118.778723 338 10193ft 157kts
27-Jun-15 20:18 35.049231 -118.794599 338 10180ft 158kts
27-Jun-15 20:19 35.065907 -118.801818 338 10164ft 160kts
27-Jun-15 20:20 35.080299 -118.808248 338 10044ft 171kts
27-Jun-15 20:21 35.122526 -118.828853 338 9984ft 175kts
27-Jun-15 20:22 35.167699 -118.850910 338 9984ft 175kts
27-Jun-15 20:23 35.212697 -118.872875 338 9984ft 175kts
27-Jun-15 20:24 35.257876 -118.894921 338 9984ft 175kts
27-Jun-15 20:25 35.302943 -118.916905 338 9984ft 175kts
27-Jun-15 20:26 35.348200 -118.938975 338 9984ft 175kts
27-Jun-15 20:27 35.393352 -118.960985 338 9984ft 175kts
27-Jun-15 20:28 35.438525 -118.982999 338 9984ft 175kts
27-Jun-15 20:29 35.483716 -119.005014 338 9984ft 175kts
27-Jun-15 20:30 35.528969 -119.027053 338 9984ft 175kts
27-Jun-15 20:31 35.573961 -119.048958 338 9984ft 175kts
27-Jun-15 20:32 35.619126 -119.070941 338 9984ft 175kts
27-Jun-15 20:33 35.664351 -119.092945 338 9984ft 175kts
27-Jun-15 20:34 35.709292 -119.114802 338 9984ft 175kts
27-Jun-15 20:35 35.754572 -119.136817 338 9984ft 175kts
27-Jun-15 20:36 35.799908 -119.158851 338 9984ft 175kts
27-Jun-15 20:37 35.845049 -119.180784 338 9984ft 175kts
27-Jun-15 20:38 35.890335 -119.202691 338 10057ft 164kts
27-Jun-15 20:39 35.917090 -119.203427 9 8412ft 156kts
27-Jun-15 20:40 35.928034 -119.196071 145 8229ft 119kts
27-Jun-15 20:41 35.942149 -119.201651 294 9031ft 125kts
27-Jun-15 20:42 35.961217 -119.253219 292 8058ft 179kts
27-Jun-15 20:43 35.987152 -119.303591 310 7961ft 165kts
27-Jun-15 20:44 36.023303 -119.324838 344 9138ft 110kts
27-Jun-15 20:45 36.055964 -119.338270 340 9718ft 135kts
27-Jun-15 20:46 36.093260 -119.355986 338 9986ft 156kts
27-Jun-15 20:47 36.135655 -119.376528 338 9985ft 168kts
27-Jun-15 20:48 36.180199 -119.398057 338 9984ft 174kts
27-Jun-15 20:49 36.225531 -119.420003 338 9984ft 175kts
27-Jun-15 20:50 36.271015 -119.442020 338 9984ft 176kts
27-Jun-15 20:51 36.316578 -119.464068 338 9984ft 175kts
27-Jun-15 20:52 36.360438 -119.485299 338 9980ft 153kts
27-Jun-15 20:53 36.398517 -119.503688 338 9983ft 143kts
27-Jun-15 20:54 36.435362 -119.521480 338 9985ft 144kts
27-Jun-15 20:55 36.474039 -119.540162 338 9984ft 152kts
27-Jun-15 20:56 36.513851 -119.559386 338 9984ft 154kts
27-Jun-15 20:57 36.553843 -119.578693 338 9984ft 155kts
27-Jun-15 20:58 36.593881 -119.598028 338 10132ft 149kts
27-Jun-15 20:59 36.631764 -119.606860 3 11022ft 137kts
27-Jun-15 21:00 36.806073 -119.495322 2 11849ft 125kts
27-Jun-15 21:01 36.844391 -119.496889 352 12348ft 143kts
27-Jun-15 21:02 36.885011 -119.511588 338 12498ft 165kts
27-Jun-15 21:03 36.926650 -119.538076 325 12496ft 172kts
27-Jun-15 21:04 36.966396 -119.571729 325 12495ft 173kts
27-Jun-15 21:05 37.005669 -119.604985 325 12493ft 164kts
27-Jun-15 21:06 37.041795 -119.635544 325 12495ft 154kts
27-Jun-15 21:07 37.076880 -119.665223 325 12495ft 151kts
27-Jun-15 21:08 37.111580 -119.694572 326 12495ft 151kts
27-Jun-15 21:09 37.146207 -119.723855 326 12495ft 151kts
27-Jun-15 21:10 37.180903 -119.753190 326 12495ft 151kts
27-Jun-15 21:11 37.215505 -119.782442 326 12495ft 151kts
27-Jun-15 21:12 37.250196 -119.811765 326 12495ft 151kts
27-Jun-15 21:13 37.284896 -119.841089 326 12495ft 151kts
27-Jun-15 21:14 37.319579 -119.870394 326 12495ft 151kts
27-Jun-15 21:15 37.354304 -119.899730 326 12495ft 151kts
27-Jun-15 21:16 37.389042 -119.929071 326 12495ft 151kts
27-Jun-15 21:17 37.423811 -119.958434 326 12495ft 151kts
27-Jun-15 21:18 37.458594 -119.987802 326 12495ft 151kts
27-Jun-15 21:19 37.494241 -120.017496 326 12008ft 158kts
27-Jun-15 21:20 37.531932 -120.047277 329 10974ft 161kts
27-Jun-15 21:21 37.569439 -120.077014 327 9894ft 164kts
27-Jun-15 21:22 37.607816 -120.108777 325 8603ft 170kts
27-Jun-15 21:23 37.646301 -120.141766 328 7348ft 166kts
27-Jun-15 21:24 37.685229 -120.172246 326 6044ft 165kts
27-Jun-15 21:25 37.719466 -120.203193 324 5043ft 142kts
27-Jun-15 21:26 37.749013 -120.232048 306 5032ft 137kts
27-Jun-15 21:27 37.785956 -120.243624 339 5035ft 151kts
27-Jun-15 21:28 37.810700 -120.258669 331 5014ft 159kts
27-Jun-15 21:29 37.854993 -120.290320 327 5014ft 155kts
27-Jun-15 21:30 37.888970 -120.323329 318 5033ft 152kts
27-Jun-15 21:31 37.914860 -120.355166 312 4857ft 158kts
27-Jun-15 21:32 37.945757 -120.397374 313 4477ft 168kts
27-Jun-15 21:33 37.980991 -120.434127 333 4371ft 158kts
27-Jun-15 21:34 38.021997 -120.449050 359 3957ft 158kts
27-Jun-15 21:35 38.061837 -120.437476 36 3311ft 130kts
27-Jun-15 21:36 38.080825 -120.408105 97 2775ft 100kts
27-Jun-15 21:37 38.056221 -120.407161 190 2551ft 106kts
27-Jun-15 21:38 38.032278 -120.412555 190 2121ft 46kts
27-Jun-15 21:39 38.029738 -120.413201 191 2121ft 14kts
27-Jun-15 21:40 38.027799 -120.413596 160 2121ft 0kts
27-Jun-15 21:41 38.026418 -120.414909 345 2121ft 12kts
27-Jun-15 21:42 38.029237 -120.417829 296 2121ft 9kts
27-Jun-15 21:43 38.030284 -120.418696 163 2121ft 5kts
27-Jun-15 21:44 38.030138 -120.418804 218 2121ft 0kts
27-Jun-15 21:45 38.030138 -120.418804 218 2121ft 0kts
27-Jun-15 21:46 38.030138 -120.418804 218 2121ft 0kts
27-Jun-15 21:47 38.030138 -120.418804 218 2121ft 0kts
27-Jun-15 21:48 38.030138 -120.418804 218 2121ft 0kts
27-Jun-15 21:49 38.030138 -120.418804 218 2121ft 0kts
27-Jun-15 21:50 38.030138 -120.418804 218 2121ft 0kts
27-Jun-15 21:51 38.030138 -120.418804 218 2121ft 0kts
27-Jun-15 21:52 38.030138 -120.418804 218 2121ft 0kts
27-Jun-15 21:53 38.030138 -120.418804 218 2121ft 0kts

Navigation Log

Ident Type
Flight plan parsing failed, navigation log unavailable